Time;durP1;ratioP1;P1;durP2;ratioP2;P2;SDS_P1;SDS_P2;PMS_P1;PMS_P2;Temp;Humidity;BMP_temperature;BMP_pressure;BME280_temperature;BME280_humidity;BME280_pressure;Samples;Min_cycle;Max_cycle;Signal;HPM_P1;HPM_P2
2023/09/24 00:02:19;;;;;;;8.70;7.90;;;;;;;14.58;100.00;99287.19;109545;1253;62878;-67
2023/09/24 00:04:46;;;;;;;9.40;8.30;;;;;;;14.55;100.00;99292.40;109548;1253;58154;-67
2023/09/24 00:07:14;;;;;;;9.90;8.90;;;;;;;14.54;100.00;99292.52;109579;1253;58075;-67
2023/09/24 00:09:41;;;;;;;9.10;8.40;;;;;;;14.53;100.00;99291.84;109185;1253;63946;-67
2023/09/24 00:12:07;;;;;;;10.10;9.10;;;;;;;14.52;100.00;99290.82;109519;1254;58982;-67
2023/09/24 00:14:33;;;;;;;9.30;8.40;;;;;;;14.52;100.00;99289.25;109540;1253;58247;-67
2023/09/24 00:17:00;;;;;;;9.20;8.30;;;;;;;14.52;100.00;99293.14;109560;1253;58146;-67
2023/09/24 00:19:26;;;;;;;10.70;8.60;;;;;;;14.52;100.00;99290.82;109384;1253;58350;-67
2023/09/24 00:21:53;;;;;;;8.40;7.60;;;;;;;14.50;100.00;99289.52;109538;1253;58272;-67
2023/09/24 00:24:20;;;;;;;8.90;8.00;;;;;;;14.48;100.00;99282.90;109567;1253;61415;-67
2023/09/24 00:26:46;;;;;;;9.10;8.20;;;;;;;14.46;100.00;99279.88;109566;1253;62901;-67
2023/09/24 00:29:13;;;;;;;8.70;7.80;;;;;;;14.44;100.00;99279.83;109095;1254;58222;-67
2023/09/24 00:31:40;;;;;;;8.00;6.60;;;;;;;14.43;100.00;99279.51;109601;1253;58226;-67
2023/09/24 00:34:06;;;;;;;8.90;8.00;;;;;;;14.41;100.00;99279.55;109575;1253;65023;-67
2023/09/24 00:36:33;;;;;;;9.10;7.50;;;;;;;14.40;100.00;99286.09;109572;1253;58692;-67
2023/09/24 00:39:01;;;;;;;8.30;7.40;;;;;;;14.38;100.00;99296.55;109498;1253;64094;-67
2023/09/24 00:41:28;;;;;;;8.80;7.90;;;;;;;14.39;100.00;99299.36;109568;1253;58221;-67
2023/09/24 00:43:54;;;;;;;8.90;7.40;;;;;;;14.39;100.00;99305.58;109358;1253;58249;-67
2023/09/24 00:46:21;;;;;;;8.50;7.60;;;;;;;14.40;100.00;99310.39;109525;1253;63650;-67
2023/09/24 00:48:50;;;;;;;8.50;7.60;;;;;;;14.40;100.00;99313.38;109555;1253;60201;-67
2023/09/24 00:51:22;;;;;;;8.50;7.70;;;;;;;14.41;100.00;99315.86;109514;1253;64947;-67
2023/09/24 00:53:51;;;;;;;8.70;7.70;;;;;;;14.40;100.00;99316.11;109536;1253;58159;-67
2023/09/24 00:56:18;;;;;;;10.30;7.50;;;;;;;14.38;100.00;99321.95;109369;1253;58401;-67
2023/09/24 00:58:50;;;;;;;9.60;8.30;;;;;;;14.36;100.00;99328.34;109564;1253;63724;-68
2023/09/24 01:01:17;;;;;;;9.00;7.60;;;;;;;14.35;100.00;99337.02;109587;1253;60194;-68
2023/09/24 01:03:46;;;;;;;7.80;7.10;;;;;;;14.34;100.00;99342.98;109567;1253;62480;-68
2023/09/24 01:06:13;;;;;;;8.50;7.60;;;;;;;14.35;100.00;99354.03;109341;1253;58195;-69
2023/09/24 01:08:39;;;;;;;10.80;7.20;;;;;;;14.33;100.00;99364.34;109579;1253;58182;-70
2023/09/24 01:11:06;;;;;;;8.50;7.60;;;;;;;14.31;100.00;99373.08;109222;1253;64030;-67
2023/09/24 01:13:41;;;;;;;8.30;7.50;;;;;;;14.28;100.00;99371.00;109572;1253;59282;-66
2023/09/24 01:16:09;;;;;;;8.80;8.00;;;;;;;14.25;100.00;99371.36;109568;1253;64426;-67
2023/09/24 01:18:41;;;;;;;8.50;7.60;;;;;;;14.24;100.00;99367.50;109318;1253;58545;-66
2023/09/24 01:21:11;;;;;;;9.90;8.30;;;;;;;14.24;100.00;99362.16;109623;1253;58326;-67
2023/09/24 01:23:40;;;;;;;8.80;6.80;;;;;;;14.23;100.00;99361.55;109150;1253;65571;-66
2023/09/24 01:26:10;;;;;;;7.40;6.70;;;;;;;14.22;100.00;99363.02;109567;1253;60426;-67
2023/09/24 01:28:37;;;;;;;7.70;6.90;;;;;;;14.22;100.00;99364.84;109526;1253;64134;-68
2023/09/24 01:31:06;;;;;;;9.30;8.00;;;;;;;14.22;100.00;99366.27;109502;1253;58120;-67
2023/09/24 01:33:36;;;;;;;7.00;6.40;;;;;;;14.22;100.00;99376.84;109568;1253;58181;-67
2023/09/24 01:36:03;;;;;;;7.10;6.50;;;;;;;14.20;100.00;99378.73;109509;1253;65278;-67
2023/09/24 01:38:31;;;;;;;9.30;6.00;;;;;;;14.18;100.00;99382.61;109185;1253;59041;-67
2023/09/24 01:40:59;;;;;;;6.70;5.80;;;;;;;14.18;100.00;99386.77;109539;1253;64161;-67
2023/09/24 01:43:26;;;;;;;7.70;6.90;;;;;;;14.17;100.00;99387.19;109524;1253;58124;-66
2023/09/24 01:45:52;;;;;;;6.20;5.60;;;;;;;14.16;100.00;99393.17;109524;1253;58165;-66
2023/09/24 01:48:18;;;;;;;8.20;6.60;;;;;;;14.15;100.00;99400.56;109527;1253;64032;-67
2023/09/24 01:50:45;;;;;;;7.40;6.70;;;;;;;14.14;100.00;99404.38;109562;1253;58187;-68
2023/09/24 01:53:14;;;;;;;7.70;6.90;;;;;;;14.14;100.00;99404.73;109522;1253;58365;-67
2023/09/24 01:55:40;;;;;;;8.40;7.50;;;;;;;14.15;100.00;99406.32;109344;1254;58577;-67
2023/09/24 01:58:07;;;;;;;10.20;7.90;;;;;;;14.14;100.00;99402.45;109553;1253;58292;-67
2023/09/24 02:00:34;;;;;;;9.30;8.10;;;;;;;14.12;100.00;99404.91;109575;1253;64936;-68
2023/09/24 02:03:05;;;;;;;8.70;7.50;;;;;;;14.11;100.00;99407.10;109562;1253;58886;-68
2023/09/24 02:05:33;;;;;;;7.80;7.00;;;;;;;14.08;100.00;99408.20;109598;1253;63832;-67
2023/09/24 02:08:05;;;;;;;7.80;6.90;;;;;;;14.07;100.00;99406.53;109348;1253;58201;-68
2023/09/24 02:10:33;;;;;;;7.10;6.40;;;;;;;14.06;100.00;99401.39;109528;1253;58247;-67
2023/09/24 02:13:03;;;;;;;7.00;6.30;;;;;;;14.05;100.00;99401.67;109529;1253;64026;-67
2023/09/24 02:15:30;;;;;;;5.90;5.40;;;;;;;14.02;100.00;99403.98;109574;1253;60156;-67
2023/09/24 02:17:56;;;;;;;6.50;5.40;;;;;;;14.01;100.00;99405.52;109504;1253;62852;-68
2023/09/24 02:20:25;;;;;;;8.50;5.30;;;;;;;13.99;100.00;99413.55;109513;1253;58105;-67
2023/09/24 02:22:57;;;;;;;7.80;5.20;;;;;;;13.95;100.00;99418.65;109521;1253;58256;-68
2023/09/24 02:25:26;;;;;;;5.90;4.90;;;;;;;13.90;100.00;99423.52;109374;1253;65212;-67
2023/09/24 02:27:53;;;;;;;5.80;5.00;;;;;;;13.83;100.00;99422.91;109562;1253;60173;-67
2023/09/24 02:30:21;;;;;;;4.90;4.40;;;;;;;13.80;100.00;99428.16;109536;1253;64122;-67
2023/09/24 02:32:47;;;;;;;4.70;3.90;;;;;;;13.79;100.00;99440.05;109529;1253;58225;-68
2023/09/24 02:35:15;;;;;;;6.80;4.30;;;;;;;13.76;100.00;99445.75;109373;1253;58248;-68
2023/09/24 02:37:45;;;;;;;7.70;4.40;;;;;;;13.73;100.00;99456.52;109503;1253;64929;-67
2023/09/24 02:40:28;;;;;;;5.20;4.20;;;;;;;13.70;100.00;99462.84;109548;1253;58786;-68
2023/09/24 02:43:00;;;;;;;5.60;3.90;;;;;;;13.66;100.00;99463.31;109172;1253;64272;-67
2023/09/24 02:45:29;;;;;;;19.00;5.10;;;;;;;13.65;100.00;99463.70;109517;1253;58194;-68
2023/09/24 02:47:56;;;;;;;6.90;4.00;;;;;;;13.65;100.00;99467.85;109401;1253;58581;-68
2023/09/24 02:50:25;;;;;;;3.80;3.50;;;;;;;13.65;100.00;99473.91;109156;1253;65242;-67
2023/09/24 02:52:56;;;;;;;5.00;3.80;;;;;;;13.65;100.00;99475.66;109109;1253;59844;-67
2023/09/24 02:55:24;;;;;;;4.20;3.80;;;;;;;13.66;100.00;99471.85;109140;1253;62759;-67
2023/09/24 02:57:51;;;;;;;4.90;4.00;;;;;;;13.66;100.00;99464.91;109498;1253;58265;-68
2023/09/24 03:00:26;;;;;;;5.30;3.70;;;;;;;13.65;100.00;99468.40;109560;1253;58189;-67
2023/09/24 03:02:55;;;;;;;6.00;4.00;;;;;;;13.64;100.00;99478.77;109559;1253;65325;-67
2023/09/24 03:05:24;;;;;;;4.00;3.60;;;;;;;13.63;100.00;99485.11;109559;1252;59065;-68
2023/09/24 03:07:52;;;;;;;4.40;4.10;;;;;;;13.63;100.00;99487.23;109359;1254;62796;-67
2023/09/24 03:10:19;;;;;;;4.80;3.60;;;;;;;13.63;100.00;99490.10;109563;1253;58118;-67
2023/09/24 03:12:46;;;;;;;5.20;3.70;;;;;;;13.62;100.00;99487.52;109513;1253;58184;-67
2023/09/24 03:15:13;;;;;;;4.40;3.80;;;;;;;13.58;100.00;99491.34;109561;1253;65370;-68
2023/09/24 03:17:42;;;;;;;4.40;4.00;;;;;;;13.56;100.00;99488.10;109550;1253;59834;-67
2023/09/24 03:20:16;;;;;;;4.60;3.60;;;;;;;13.55;100.00;99486.75;109551;1253;63754;-67
2023/09/24 03:22:48;;;;;;;4.70;4.30;;;;;;;13.52;100.00;99485.16;109758;1249;58125;-68
2023/09/24 03:25:19;;;;;;;5.40;4.50;;;;;;;13.51;100.00;99486.70;109784;1250;58206;-68
2023/09/24 03:27:47;;;;;;;4.60;4.10;;;;;;;13.50;100.00;99488.90;109442;1249;65263;-68
2023/09/24 03:30:17;;;;;;;4.80;4.40;;;;;;;13.49;100.00;99483.06;109758;1250;59891;-68
2023/09/24 03:32:45;;;;;;;6.20;4.60;;;;;;;13.49;100.00;99484.14;109788;1249;63057;-68
2023/09/24 03:35:11;;;;;;;4.60;4.30;;;;;;;13.49;100.00;99489.34;109777;1249;58154;-67
2023/09/24 03:37:40;;;;;;;5.40;4.80;;;;;;;13.50;100.00;99493.75;109524;1249;58388;-68
2023/09/24 03:40:12;;;;;;;4.70;4.30;;;;;;;13.48;100.00;99498.48;109765;1249;65163;-68
2023/09/24 03:42:39;;;;;;;4.60;4.10;;;;;;;13.44;100.00;99500.41;109798;1250;60226;-68
2023/09/24 03:45:08;;;;;;;5.60;5.10;;;;;;;13.41;100.00;99499.39;109567;1250;64049;-67
2023/09/24 03:47:36;;;;;;;6.00;4.80;;;;;;;13.40;100.00;99501.19;109798;1250;58210;-67
2023/09/24 03:50:04;;;;;;;5.10;4.40;;;;;;;13.37;100.00;99502.42;109807;1249;58228;-67
2023/09/24 03:52:30;;;;;;;7.20;4.60;;;;;;;13.35;100.00;99502.46;109803;1249;65307;-67
2023/09/24 03:54:59;;;;;;;6.50;4.40;;;;;;;13.33;100.00;99506.11;109791;1249;58977;-67
2023/09/24 03:57:30;;;;;;;5.30;4.80;;;;;;;13.32;100.00;99505.17;109752;1250;64027;-67
2023/09/24 03:59:59;;;;;;;5.80;4.50;;;;;;;13.31;100.00;99507.57;109562;1250;58226;-67
2023/09/24 04:02:29;;;;;;;6.80;4.80;;;;;;;13.29;100.00;99508.56;109759;1249;58204;-67
2023/09/24 04:04:56;;;;;;;7.30;5.10;;;;;;;13.29;100.00;99509.66;109794;1250;65212;-67
2023/09/24 04:07:22;;;;;;;6.30;4.70;;;;;;;13.29;100.00;99508.40;109764;1249;60094;-67
2023/09/24 04:09:49;;;;;;;6.20;4.80;;;;;;;13.27;100.00;99512.63;109790;1249;58337;-67
2023/09/24 04:12:15;;;;;;;6.30;5.10;;;;;;;13.25;100.00;99519.19;109383;1250;58253;-67
2023/09/24 04:14:42;;;;;;;5.50;5.00;;;;;;;13.24;100.00;99524.06;109620;1249;58225;-67
2023/09/24 04:17:09;;;;;;;6.50;5.70;;;;;;;13.23;100.00;99527.20;109776;1250;58250;-67
2023/09/24 04:19:36;;;;;;;5.50;5.00;;;;;;;13.22;100.00;99522.27;109757;1249;58942;-67
2023/09/24 04:22:02;;;;;;;6.30;5.20;;;;;;;13.20;100.00;99525.04;109743;1249;64060;-67
2023/09/24 04:24:28;;;;;;;5.80;5.20;;;;;;;13.20;100.00;99524.86;109787;1250;58152;-67
2023/09/24 04:26:56;;;;;;;5.10;4.60;;;;;;;13.22;100.00;99532.80;109729;1249;58191;-67
2023/09/24 04:29:22;;;;;;;5.60;5.10;;;;;;;13.22;100.00;99539.21;109763;1249;65265;-68
2023/09/24 04:31:50;;;;;;;6.50;5.90;;;;;;;13.23;100.00;99542.52;109800;1249;60149;-67
2023/09/24 04:34:19;;;;;;;6.00;5.40;;;;;;;13.23;100.00;99546.59;109749;1250;62912;-67
2023/09/24 04:36:46;;;;;;;6.00;5.30;;;;;;;13.22;100.00;99554.02;109743;1250;58431;-67
2023/09/24 04:39:13;;;;;;;6.30;5.80;;;;;;;13.19;100.00;99555.44;109794;1249;58221;-67
2023/09/24 04:41:42;;;;;;;5.90;5.40;;;;;;;13.18;100.00;99558.36;109771;1250;63752;-67
2023/09/24 04:44:09;;;;;;;6.30;5.60;;;;;;;13.15;100.00;99562.30;109481;1249;60176;-67
2023/09/24 04:46:36;;;;;;;6.00;5.40;;;;;;;13.12;100.00;99567.52;109722;1250;65220;-67
2023/09/24 04:49:04;;;;;;;6.40;5.90;;;;;;;13.11;100.00;99565.27;109736;1250;58137;-67
2023/09/24 04:51:34;;;;;;;6.70;5.80;;;;;;;13.12;100.00;99560.88;109774;1249;58208;-67
2023/09/24 04:54:01;;;;;;;8.80;7.20;;;;;;;13.15;100.00;99561.80;109783;1250;64027;-67
2023/09/24 04:56:28;;;;;;;7.40;6.70;;;;;;;13.17;100.00;99570.19;109482;1250;58929;-67
2023/09/24 04:58:55;;;;;;;7.00;6.40;;;;;;;13.19;100.00;99574.52;109769;1250;64374;-67
2023/09/24 05:01:22;;;;;;;8.10;7.40;;;;;;;13.21;100.00;99577.64;109746;1249;58144;-68
2023/09/24 05:03:50;;;;;;;8.30;7.50;;;;;;;13.20;100.00;99585.75;109392;1250;58183;-68
2023/09/24 05:06:18;;;;;;;8.60;7.70;;;;;;;13.20;100.00;99589.86;109799;1250;64026;-67
2023/09/24 05:08:46;;;;;;;8.70;7.20;;;;;;;13.20;100.00;99595.20;109772;1250;59107;-67
2023/09/24 05:11:13;;;;;;;8.10;7.30;;;;;;;13.19;100.00;99601.11;109739;1250;64035;-67
2023/09/24 05:13:40;;;;;;;8.80;7.60;;;;;;;13.20;100.00;99605.73;109269;1249;58254;-67
2023/09/24 05:16:08;;;;;;;10.00;7.80;;;;;;;13.21;100.00;99603.12;109778;1250;58159;-67
2023/09/24 05:18:34;;;;;;;11.60;10.50;;;;;;;13.24;100.00;99599.70;109576;1250;64954;-67
2023/09/24 05:21:03;;;;;;;10.20;9.30;;;;;;;13.27;100.00;99594.70;109442;1249;59860;-67
2023/09/24 05:23:29;;;;;;;10.80;9.80;;;;;;;13.31;100.00;99593.58;109550;1250;62876;-67
2023/09/24 05:25:56;;;;;;;11.90;10.90;;;;;;;13.35;100.00;99591.86;109786;1250;58139;-67
2023/09/24 05:28:23;;;;;;;10.70;9.80;;;;;;;13.39;100.00;99591.92;109779;1250;58451;-67
2023/09/24 05:30:53;;;;;;;12.90;11.80;;;;;;;13.43;100.00;99593.08;109736;1249;65299;-67
2023/09/24 05:33:20;;;;;;;12.40;11.10;;;;;;;13.46;100.00;99593.08;109525;1250;60542;-67
2023/09/24 05:35:51;;;;;;;10.10;9.10;;;;;;;13.48;100.00;99585.64;109653;1250;64099;-67
2023/09/24 05:38:19;;;;;;;9.60;8.50;;;;;;;13.49;100.00;99590.35;109551;1250;58181;-68
2023/09/24 05:40:46;;;;;;;11.00;8.40;;;;;;;13.52;100.00;99603.52;109712;1249;58204;-68
2023/09/24 05:43:12;;;;;;;9.10;8.20;;;;;;;13.55;100.00;99612.05;109450;1250;64119;-67
2023/09/24 05:45:49;;;;;;;9.10;7.60;;;;;;;13.57;100.00;99609.98;109649;1250;59030;-68
2023/09/24 05:48:16;;;;;;;8.10;7.30;;;;;;;13.60;100.00;99608.70;109664;1249;64108;-67
2023/09/24 05:50:44;;;;;;;7.90;7.10;;;;;;;13.66;100.00;99610.10;109687;1249;58153;-68
2023/09/24 05:53:15;;;;;;;7.40;6.70;;;;;;;13.71;100.00;99607.96;109595;1250;58288;-68
2023/09/24 05:55:50;;;;;;;7.50;6.50;;;;;;;13.76;100.00;99607.95;109665;1249;64110;-68
2023/09/24 05:58:17;;;;;;;7.50;6.90;;;;;;;13.81;100.00;99607.07;109586;1250;58921;-68
2023/09/24 06:00:45;;;;;;;6.60;6.00;;;;;;;13.87;100.00;99603.62;109687;1249;58726;-68
2023/09/24 06:03:13;;;;;;;6.00;5.40;;;;;;;13.92;100.00;99602.34;109613;1249;58117;-68
2023/09/24 06:05:40;;;;;;;5.90;5.30;;;;;;;13.98;100.00;99599.61;109709;1249;58208;-68
2023/09/24 06:08:07;;;;;;;6.20;5.60;;;;;;;14.04;100.00;99600.25;109666;1249;64911;-68
2023/09/24 06:10:35;;;;;;;6.00;5.40;;;;;;;14.12;100.00;99602.87;109716;1250;58143;-67
2023/09/24 06:13:02;;;;;;;9.50;5.70;;;;;;;14.20;100.00;99607.46;109715;1249;62795;-68
2023/09/24 06:15:28;;;;;;;5.80;5.30;;;;;;;14.28;100.00;99610.64;109663;1249;58145;-67
2023/09/24 06:17:55;;;;;;;6.90;5.20;;;;;;;14.35;100.00;99614.30;109684;1250;58990;-68
2023/09/24 06:20:22;;;;;;;6.30;5.00;;;;;;;14.41;100.00;99620.11;109453;1250;65247;-68
2023/09/24 06:22:57;;;;;;;6.40;5.80;;;;;;;14.48;100.00;99626.58;109666;1249;59817;-68
2023/09/24 06:25:24;;;;;;;6.60;5.70;;;;;;;14.51;100.00;99630.29;109701;1249;65026;-68
2023/09/24 06:27:50;;;;;;;5.40;4.90;;;;;;;14.51;100.00;99636.17;109648;1249;58131;-68
2023/09/24 06:30:17;;;;;;;5.80;5.30;;;;;;;14.54;100.00;99642.41;109672;1249;58144;-68
2023/09/24 06:32:43;;;;;;;5.70;5.20;;;;;;;14.59;100.00;99653.14;109707;1250;65194;-68
2023/09/24 06:35:10;;;;;;;5.50;5.00;;;;;;;14.64;100.00;99655.80;109677;1249;58292;-68
2023/09/24 06:37:36;;;;;;;5.10;4.60;;;;;;;14.67;100.00;99656.52;109645;1250;58229;-69
2023/09/24 06:40:03;;;;;;;4.50;4.00;;;;;;;14.66;100.00;99655.27;109528;1250;58077;-69
2023/09/24 06:42:29;;;;;;;5.50;4.90;;;;;;;14.70;100.00;99656.27;109684;1250;58129;-68
2023/09/24 06:44:56;;;;;;;5.50;5.00;;;;;;;14.76;100.00;99658.36;109577;1250;147331;-68
2023/09/24 06:47:23;;;;;;;5.60;4.40;;;;;;;14.83;100.00;99663.02;109704;1250;60160;-68
2023/09/24 06:49:50;;;;;;;5.20;4.70;;;;;;;14.90;100.00;99666.81;109647;1249;64058;-68
2023/09/24 06:52:16;;;;;;;6.30;5.70;;;;;;;14.96;100.00;99668.50;109622;1249;58373;-68
2023/09/24 06:54:43;;;;;;;5.40;4.70;;;;;;;15.00;100.00;99671.39;109618;1250;58212;-68
2023/09/24 06:57:10;;;;;;;9.20;5.40;;;;;;;15.05;100.00;99676.23;109694;1250;64918;-68
2023/09/24 06:59:36;;;;;;;5.00;4.50;;;;;;;15.15;100.00;99683.58;109649;1249;58213;-68
2023/09/24 07:02:02;;;;;;;5.30;4.80;;;;;;;15.27;100.00;99686.23;109605;1249;58429;-68
2023/09/24 07:04:29;;;;;;;6.10;5.00;;;;;;;15.33;100.00;99682.73;109664;1249;58197;-68
2023/09/24 07:06:56;;;;;;;6.40;5.30;;;;;;;15.32;100.00;99686.20;109368;1250;58587;-68
2023/09/24 07:09:22;;;;;;;6.20;4.80;;;;;;;15.32;100.00;99692.84;109691;1249;65247;-68
2023/09/24 07:11:49;;;;;;;6.40;5.20;;;;;;;15.33;100.00;99698.67;109669;1250;58204;-68
2023/09/24 07:14:15;;;;;;;5.90;5.10;;;;;;;15.33;100.00;99701.48;109646;1250;58229;-68
2023/09/24 07:16:41;;;;;;;6.70;4.90;;;;;;;15.37;100.00;99706.17;109617;1250;58116;-68
2023/09/24 07:19:08;;;;;;;5.40;4.80;;;;;;;15.44;100.00;99713.95;109700;1250;58203;-68
2023/09/24 07:21:34;;;;;;;5.00;4.50;;;;;;;15.46;100.00;99717.72;109727;1250;58314;-68
2023/09/24 07:24:02;;;;;;;7.40;5.60;;;;;;;15.42;100.00;99720.91;109713;1249;58132;-67
2023/09/24 07:26:28;;;;;;;7.60;4.40;;;;;;;15.35;100.00;99723.56;109651;1249;64112;-68
2023/09/24 07:28:55;;;;;;;5.40;4.20;;;;;;;15.27;100.00;99722.15;109604;1250;58208;-67
2023/09/24 07:31:23;;;;;;;6.80;4.00;;;;;;;15.22;100.00;99723.83;109655;1250;58209;-68
2023/09/24 07:33:52;;;;;;;4.60;4.00;;;;;;;15.20;100.00;99728.09;109484;1250;63920;-69
2023/09/24 07:36:19;;;;;;;6.40;3.70;;;;;;;15.20;100.00;99734.57;109695;1250;58998;-69
2023/09/24 07:38:46;;;;;;;4.80;4.30;;;;;;;15.23;100.00;99736.45;109677;1249;62519;-69
2023/09/24 07:41:13;;;;;;;6.30;4.10;;;;;;;15.32;100.00;99746.89;109618;1250;58120;-68
2023/09/24 07:43:42;;;;;;;5.70;5.10;;;;;;;15.42;100.00;99748.65;109713;1250;58146;-68
2023/09/24 07:46:13;;;;;;;4.30;3.90;;;;;;;15.49;100.00;99749.92;109726;1249;65332;-69
2023/09/24 07:48:39;;;;;;;4.90;4.40;;;;;;;15.51;100.00;99750.46;109644;1250;60141;-68
2023/09/24 07:51:06;;;;;;;7.70;4.50;;;;;;;15.52;100.00;99747.57;109661;1250;58186;-68
2023/09/24 07:53:32;;;;;;;4.40;3.90;;;;;;;15.54;100.00;99754.36;109677;1250;58163;-67
2023/09/24 07:56:07;;;;;;;5.10;4.10;;;;;;;15.58;100.00;99751.55;109745;1249;58220;-67
2023/09/24 07:58:35;;;;;;;6.60;3.90;;;;;;;15.60;100.00;99752.84;109661;1249;65310;-67
2023/09/24 08:01:06;;;;;;;4.80;4.30;;;;;;;15.61;100.00;99755.49;109714;1249;59853;-67
2023/09/24 08:03:33;;;;;;;5.40;4.30;;;;;;;15.62;100.00;99760.60;109628;1250;62831;-67
2023/09/24 08:06:00;;;;;;;6.00;4.70;;;;;;;15.61;100.00;99761.71;109660;1251;58194;-67
2023/09/24 08:08:28;;;;;;;5.50;4.80;;;;;;;15.58;100.00;99765.13;109608;1250;58313;-67
2023/09/24 08:10:56;;;;;;;4.80;4.30;;;;;;;15.54;100.00;99767.80;109616;1250;65217;-67
2023/09/24 08:13:23;;;;;;;7.60;4.60;;;;;;;15.46;100.00;99771.05;109714;1250;60142;-67
2023/09/24 08:15:50;;;;;;;5.60;3.90;;;;;;;15.44;100.00;99774.66;109668;1250;64195;-67
2023/09/24 08:18:18;;;;;;;5.20;4.00;;;;;;;15.44;100.00;99773.56;109658;1250;58169;-67
2023/09/24 08:20:45;;;;;;;4.70;4.20;;;;;;;15.45;100.00;99775.46;109741;1250;58248;-67
2023/09/24 08:23:12;;;;;;;6.00;4.00;;;;;;;15.41;100.00;99782.73;109677;1249;65205;-67
2023/09/24 08:25:40;;;;;;;5.30;3.90;;;;;;;15.42;100.00;99785.22;109684;1249;59737;-67
2023/09/24 08:28:08;;;;;;;4.10;3.70;;;;;;;15.47;100.00;99784.33;109667;1249;64065;-67
2023/09/24 08:30:35;;;;;;;5.10;4.00;;;;;;;15.53;100.00;99786.13;109670;1249;58218;-68
2023/09/24 08:33:04;;;;;;;4.60;3.90;;;;;;;15.61;100.00;99783.77;109685;1250;58179;-68
2023/09/24 08:35:30;;;;;;;8.00;3.60;;;;;;;15.67;100.00;99784.41;109652;1250;64975;-67
2023/09/24 08:37:57;;;;;;;6.20;3.80;;;;;;;15.65;100.00;99786.52;109652;1250;59239;-68
2023/09/24 08:40:28;;;;;;;4.70;3.50;;;;;;;15.59;100.00;99787.84;109697;1250;63786;-68
2023/09/24 08:42:56;;;;;;;4.50;3.80;;;;;;;15.59;100.00;99784.98;109683;1254;58219;-67
2023/09/24 08:45:28;;;;;;;4.00;3.60;;;;;;;15.65;100.00;99786.52;109681;1250;58148;-68
2023/09/24 08:47:55;;;;;;;6.30;4.10;;;;;;;15.70;100.00;99787.04;109708;1250;63736;-67
2023/09/24 08:50:22;;;;;;;6.00;4.40;;;;;;;15.72;100.00;99795.00;109706;1250;60112;-67
2023/09/24 08:52:48;;;;;;;5.70;4.20;;;;;;;15.71;100.00;99799.55;109677;1250;64030;-67
2023/09/24 08:55:15;;;;;;;6.30;4.10;;;;;;;15.74;100.00;99801.59;109702;1250;58235;-67
2023/09/24 08:57:45;;;;;;;5.40;4.90;;;;;;;15.82;100.00;99801.94;109712;1250;58250;-68
2023/09/24 09:00:14;;;;;;;4.30;3.80;;;;;;;15.89;100.00;99802.63;109481;1251;65235;-67
2023/09/24 09:02:43;;;;;;;5.80;4.50;;;;;;;15.96;100.00;99804.94;109704;1250;61401;-68
2023/09/24 09:05:21;;;;;;;5.20;4.30;;;;;;;16.02;100.00;99799.48;109634;1250;65312;-67
2023/09/24 09:07:59;;;;;;;5.60;5.00;;;;;;;16.05;100.00;99796.44;109674;1250;58162;-67
2023/09/24 09:10:27;;;;;;;6.50;4.10;;;;;;;16.04;100.00;99795.61;109693;1250;58042;-68
2023/09/24 09:13:15;;;;;;;6.40;4.60;;;;;;;16.08;100.00;99796.73;109418;1250;65111;-67
2023/09/24 09:15:43;;;;;;;6.00;4.10;;;;;;;16.13;100.00;99794.20;109704;1250;59951;-67
2023/09/24 09:18:26;;;;;;;3.90;3.50;;;;;;;16.10;100.00;99790.33;109632;1250;64180;-68
2023/09/24 09:21:00;;;;;;;6.90;5.60;;;;;;;16.08;100.00;99788.61;109651;1249;58216;-68
2023/09/24 09:23:35;;;;;;;7.00;4.70;;;;;;;16.13;100.00;99789.88;109657;1250;58301;-67
2023/09/24 09:26:01;;;;;;;6.30;5.70;;;;;;;16.19;100.00;99788.67;109699;1250;64954;-67
2023/09/24 09:28:31;;;;;;;6.70;5.90;;;;;;;16.26;100.00;99782.08;109671;1250;58304;-68
2023/09/24 09:31:06;;;;;;;7.50;5.90;;;;;;;16.30;100.00;99778.00;109651;1251;63943;-68
2023/09/24 09:33:43;;;;;;;6.40;4.90;;;;;;;16.30;100.00;99774.23;109726;1249;58512;-68
2023/09/24 09:36:29;;;;;;;5.20;4.40;;;;;;;16.24;100.00;99772.13;109726;1250;58174;-68
2023/09/24 09:38:57;;;;;;;6.10;3.40;;;;;;;16.21;100.00;99770.41;109687;1249;63700;-67
2023/09/24 09:41:24;;;;;;;4.40;4.00;;;;;;;16.28;100.00;99766.30;109707;1250;59146;-68
2023/09/24 09:43:55;;;;;;;4.40;3.80;;;;;;;16.43;100.00;99763.89;109728;1250;64191;-67
2023/09/24 09:46:23;;;;;;;5.10;4.20;;;;;;;16.55;100.00;99763.98;109702;1250;58149;-67
2023/09/24 09:48:57;;;;;;;6.20;4.40;;;;;;;16.67;100.00;99768.41;109648;1249;58199;-67
2023/09/24 09:51:26;;;;;;;4.60;4.10;;;;;;;16.77;100.00;99774.98;109689;1250;64103;-67
2023/09/24 09:53:54;;;;;;;5.40;4.10;;;;;;;16.90;100.00;99778.46;109765;1250;58926;-68
2023/09/24 09:56:24;;;;;;;5.60;4.30;;;;;;;17.03;100.00;99781.14;109721;1250;63771;-67
2023/09/24 09:58:51;;;;;;;4.40;4.00;;;;;;;17.27;100.00;99781.71;109696;1250;58413;-67
2023/09/24 10:01:20;;;;;;;5.10;4.30;;;;;;;17.53;100.00;99781.15;109718;1249;58491;-68
2023/09/24 10:03:50;;;;;;;4.40;3.90;;;;;;;17.76;100.00;99784.27;109655;1250;65313;-68
2023/09/24 10:06:18;;;;;;;5.80;4.30;;;;;;;17.98;100.00;99783.34;109618;1250;60118;-68
2023/09/24 10:08:47;;;;;;;5.50;4.50;;;;;;;18.14;100.00;99782.32;109708;1250;64080;-68
2023/09/24 10:11:32;;;;;;;6.10;3.60;;;;;;;18.21;100.00;99781.59;109658;1250;58130;-69
2023/09/24 10:14:00;;;;;;;4.00;3.60;;;;;;;18.16;100.00;99784.52;109667;1250;58209;-66
2023/09/24 10:16:27;;;;;;;4.50;3.80;;;;;;;18.31;100.00;99784.46;109596;1250;64188;-68
2023/09/24 10:19:00;;;;;;;4.20;3.80;;;;;;;18.52;100.00;99787.89;109730;1249;59001;-67
2023/09/24 10:21:29;;;;;;;5.90;4.10;;;;;;;18.68;100.00;99793.67;109639;1250;63868;-67
2023/09/24 10:24:17;;;;;;;4.30;3.90;;;;;;;18.76;100.00;99794.98;109407;1255;58236;-68
2023/09/24 10:27:02;;;;;;;6.20;3.60;;;;;;;18.57;100.00;99795.33;109663;1250;58175;-67
2023/09/24 10:29:55;;;;;;;4.10;3.80;;;;;;;18.34;100.00;99800.61;109737;1250;64022;-68
2023/09/24 10:32:23;;;;;;;3.70;3.40;;;;;;;18.18;100.00;99801.24;109698;1250;58943;-68
2023/09/24 10:34:55;;;;;;;4.60;3.90;;;;;;;18.16;100.00;99802.01;109676;1250;63935;-68
2023/09/24 10:37:27;;;;;;;3.50;2.90;;;;;;;18.10;100.00;99799.83;109682;1250;58150;-68
2023/09/24 10:40:04;;;;;;;4.60;3.80;;;;;;;18.05;100.00;99803.66;109630;1250;58258;-68
2023/09/24 10:43:10;;;;;;;4.30;3.40;;;;;;;18.01;100.00;99801.67;109721;1250;65170;-69
2023/09/24 10:45:37;;;;;;;3.30;3.00;;;;;;;17.98;100.00;99804.21;108980;1258;60301;-67
2023/09/24 10:48:03;;;;;;;4.00;3.50;;;;;;;18.01;100.00;99803.43;108954;1259;64138;-68
2023/09/24 10:50:30;;;;;;;3.50;3.10;;;;;;;18.13;100.00;99797.22;108822;1259;58450;-68
2023/09/24 10:52:59;;;;;;;3.90;3.40;;;;;;;18.21;100.00;99793.43;108961;1259;58627;-67
2023/09/24 10:55:29;;;;;;;4.20;2.90;;;;;;;18.26;100.00;99791.06;108957;1258;64937;-68
2023/09/24 10:58:04;;;;;;;3.60;3.10;;;;;;;18.33;100.00;99797.06;108991;1259;61231;-67
2023/09/24 11:00:32;;;;;;;5.30;3.20;;;;;;;18.36;100.00;99794.85;108939;1258;64495;-68
2023/09/24 11:03:02;;;;;;;3.80;3.00;;;;;;;18.43;100.00;99796.02;108763;1259;58285;-67
2023/09/24 11:05:33;;;;;;;3.50;3.20;;;;;;;18.49;100.00;99799.52;108953;1259;58575;-68
2023/09/24 11:07:59;;;;;;;4.10;3.80;;;;;;;18.55;100.00;99799.48;108971;1258;66376;-68
2023/09/24 11:10:26;;;;;;;4.10;3.70;;;;;;;18.66;100.00;99797.59;108973;1258;58311;-68
2023/09/24 11:12:56;;;;;;;3.30;3.00;;;;;;;18.76;100.00;99793.36;108985;1259;64077;-68
2023/09/24 11:15:24;;;;;;;3.30;3.10;;;;;;;18.78;100.00;99793.70;108970;1259;58161;-68
2023/09/24 11:17:52;;;;;;;3.30;3.10;;;;;;;18.82;100.00;99795.73;108996;1258;58386;-68
2023/09/24 11:20:22;;;;;;;3.60;3.30;;;;;;;18.83;100.00;99793.27;108833;1258;64032;-68
2023/09/24 11:22:59;;;;;;;3.20;2.90;;;;;;;18.95;100.00;99788.22;109452;1250;59686;-68
2023/09/24 11:25:26;;;;;;;4.40;2.80;;;;;;;18.98;100.00;99785.50;109739;1250;63764;-68